WMT983 LUKK-LROP
Flight info
| Callsign | WMT983 |
|---|---|
| Flight time | 0h 38m |
| Altitude | 30000 |
| Route | LIPTA T34 KODRU DCT DENAK |
| Aircraft | A20N/M-SDE2E3FGHIRWXY/LB1 |
Departure
| Time | 2026-05-01 08:54 |
|---|---|
| Airport | Chişinău International Airport (LUKK) |
Arrival
| Time | 2026-05-01 09:32 |
|---|---|
| Airport | Bucharest Henri Coandă International Airport (LROP) |
| Time | Latitude | Longitude | Altitude | Speed | Heading |
|---|---|---|---|---|---|
| 2026-05-01 08:44 | 46.93240 | 28.93535 | 408 ft | 0 kts | 276° |
| 2026-05-01 08:49 | 46.93241 | 28.93509 | 405 ft | 5 kts | 276° |
| 2026-05-01 08:49 | 46.93226 | 28.93474 | 408 ft | 5 kts | 213° |
| 2026-05-01 08:50 | 46.93191 | 28.93452 | 409 ft | 6 kts | 199° |
| 2026-05-01 08:50 | 46.93160 | 28.93421 | 408 ft | 7 kts | 231° |
| 2026-05-01 08:50 | 46.93158 | 28.93342 | 410 ft | 10 kts | 277° |
| 2026-05-01 08:50 | 46.93168 | 28.93216 | 406 ft | 17 kts | 277° |
| 2026-05-01 08:51 | 46.93186 | 28.93017 | 409 ft | 23 kts | 278° |
| 2026-05-01 08:51 | 46.93212 | 28.92765 | 403 ft | 28 kts | 280° |
| 2026-05-01 08:51 | 46.93234 | 28.92466 | 405 ft | 32 kts | 277° |
| 2026-05-01 08:51 | 46.93259 | 28.92160 | 407 ft | 14 kts | 277° |
| 2026-05-01 08:52 | 46.93236 | 28.92036 | 407 ft | 16 kts | 207° |
| 2026-05-01 08:52 | 46.93116 | 28.91993 | 408 ft | 20 kts | 189° |
| 2026-05-01 08:52 | 46.92973 | 28.91992 | 408 ft | 22 kts | 178° |
| 2026-05-01 08:52 | 46.92810 | 28.92000 | 408 ft | 24 kts | 178° |
| 2026-05-01 08:53 | 46.92760 | 28.92034 | 409 ft | 9 kts | 118° |
| 2026-05-01 08:53 | 46.92760 | 28.92144 | 408 ft | 13 kts | 87° |
| 2026-05-01 08:53 | 46.92766 | 28.92405 | 409 ft | 59 kts | 88° |
| 2026-05-01 08:53 | 46.92785 | 28.93399 | 408 ft | 135 kts | 89° |
| 2026-05-01 08:54 | 46.92802 | 28.95021 | 687 ft | 174 kts | 85° |
| 2026-05-01 08:54 | 46.92826 | 28.96875 | 1506 ft | 189 kts | 85° |
| 2026-05-01 08:54 | 46.92873 | 28.98869 | 2402 ft | 201 kts | 84° |
| 2026-05-01 08:54 | 46.92947 | 29.00972 | 3226 ft | 211 kts | 83° |
| 2026-05-01 08:55 | 46.93009 | 29.03153 | 4096 ft | 219 kts | 84° |
| 2026-05-01 08:55 | 46.93009 | 29.05481 | 4744 ft | 242 kts | 96° |
| 2026-05-01 08:55 | 46.92345 | 29.07845 | 5284 ft | 268 kts | 125° |
| 2026-05-01 08:55 | 46.90907 | 29.09558 | 6196 ft | 275 kts | 154° |
| 2026-05-01 08:56 | 46.89027 | 29.10173 | 7090 ft | 284 kts | 182° |
| 2026-05-01 08:56 | 46.87131 | 29.09476 | 8095 ft | 283 kts | 209° |
| 2026-05-01 08:56 | 46.85610 | 29.07627 | 8926 ft | 287 kts | 237° |
| 2026-05-01 08:56 | 46.84741 | 29.05037 | 9909 ft | 288 kts | 253° |
| 2026-05-01 08:57 | 46.84063 | 29.02245 | 10716 ft | 297 kts | 251° |
| 2026-05-01 08:57 | 46.83186 | 28.99380 | 11068 ft | 321 kts | 245° |
| 2026-05-01 08:57 | 46.82194 | 28.96850 | 11314 ft | 342 kts | 240° |
| 2026-05-01 08:57 | 46.80847 | 28.93916 | 12030 ft | 349 kts | 237° |
| 2026-05-01 08:58 | 46.79416 | 28.91006 | 12858 ft | 355 kts | 236° |
| 2026-05-01 08:58 | 46.77944 | 28.88070 | 13647 ft | 360 kts | 235° |
| 2026-05-01 08:58 | 46.76452 | 28.85098 | 14405 ft | 365 kts | 235° |
| 2026-05-01 08:58 | 46.74794 | 28.82262 | 15117 ft | 371 kts | 226° |
| 2026-05-01 08:59 | 46.72951 | 28.79601 | 15840 ft | 375 kts | 226° |
| 2026-05-01 08:59 | 46.71075 | 28.76932 | 16550 ft | 379 kts | 226° |
| 2026-05-01 08:59 | 46.69193 | 28.74259 | 17157 ft | 386 kts | 226° |
| 2026-05-01 08:59 | 46.67264 | 28.71515 | 17855 ft | 389 kts | 226° |
| 2026-05-01 09:00 | 46.65313 | 28.68737 | 18216 ft | 393 kts | 226° |
| 2026-05-01 09:00 | 46.63354 | 28.65947 | 18498 ft | 394 kts | 226° |
| 2026-05-01 09:00 | 46.61382 | 28.63143 | 18833 ft | 399 kts | 226° |
| 2026-05-01 09:00 | 46.60644 | 28.62094 | 19089 ft | 399 kts | 226° |
| 2026-05-01 09:01 | 46.59433 | 28.60375 | 19525 ft | 399 kts | 226° |
| 2026-05-01 09:01 | 46.57461 | 28.57579 | 20142 ft | 402 kts | 226° |
| 2026-05-01 09:01 | 46.55444 | 28.54721 | 20746 ft | 406 kts | 226° |
| 2026-05-01 09:02 | 46.53415 | 28.51850 | 21344 ft | 409 kts | 226° |
| 2026-05-01 09:02 | 46.51366 | 28.48951 | 21931 ft | 412 kts | 226° |
| 2026-05-01 09:02 | 46.49303 | 28.46037 | 22530 ft | 416 kts | 226° |
| 2026-05-01 09:02 | 46.47221 | 28.43099 | 23111 ft | 419 kts | 226° |
| 2026-05-01 09:03 | 46.45120 | 28.40138 | 23692 ft | 422 kts | 226° |
| 2026-05-01 09:03 | 46.43003 | 28.37158 | 24203 ft | 426 kts | 226° |
| 2026-05-01 09:03 | 46.40869 | 28.34157 | 24712 ft | 428 kts | 226° |
| 2026-05-01 09:03 | 46.38753 | 28.31184 | 25193 ft | 430 kts | 226° |
| 2026-05-01 09:04 | 46.36600 | 28.28162 | 25656 ft | 432 kts | 226° |
| 2026-05-01 09:04 | 46.34430 | 28.25121 | 26136 ft | 434 kts | 226° |
| 2026-05-01 09:04 | 46.32251 | 28.22071 | 26602 ft | 437 kts | 226° |
| 2026-05-01 09:04 | 46.30058 | 28.19004 | 27045 ft | 439 kts | 226° |
| 2026-05-01 09:05 | 46.27850 | 28.15919 | 27479 ft | 442 kts | 226° |
| 2026-05-01 09:05 | 46.25635 | 28.12830 | 27896 ft | 444 kts | 226° |
| 2026-05-01 09:05 | 46.23404 | 28.09720 | 28302 ft | 446 kts | 226° |
| 2026-05-01 09:05 | 46.21191 | 28.06641 | 28700 ft | 449 kts | 226° |
| 2026-05-01 09:06 | 46.18939 | 28.03510 | 29076 ft | 451 kts | 226° |
| 2026-05-01 09:06 | 46.16680 | 28.00375 | 29510 ft | 452 kts | 226° |
| 2026-05-01 09:06 | 46.14404 | 27.97217 | 29850 ft | 454 kts | 225° |
| 2026-05-01 09:06 | 46.12113 | 27.94044 | 30176 ft | 457 kts | 225° |
| 2026-05-01 09:07 | 46.09817 | 27.90868 | 30282 ft | 458 kts | 225° |
| 2026-05-01 09:07 | 46.07519 | 27.87692 | 30304 ft | 458 kts | 225° |
| 2026-05-01 09:07 | 46.02920 | 27.81350 | 30303 ft | 458 kts | 225° |
| 2026-05-01 09:08 | 45.98338 | 27.75048 | 30306 ft | 454 kts | 225° |
| 2026-05-01 09:08 | 45.93754 | 27.68756 | 30304 ft | 455 kts | 226° |
| 2026-05-01 09:09 | 45.89200 | 27.62520 | 30307 ft | 455 kts | 226° |
| 2026-05-01 09:09 | 45.84611 | 27.56251 | 30305 ft | 453 kts | 226° |
| 2026-05-01 09:10 | 45.80041 | 27.50023 | 30301 ft | 454 kts | 225° |
| 2026-05-01 09:10 | 45.75473 | 27.43829 | 30306 ft | 454 kts | 225° |
| 2026-05-01 09:11 | 45.73183 | 27.40721 | 30146 ft | 454 kts | 225° |
| 2026-05-01 09:11 | 45.70889 | 27.37606 | 29679 ft | 452 kts | 225° |
| 2026-05-01 09:11 | 45.68615 | 27.34522 | 29100 ft | 449 kts | 225° |
| 2026-05-01 09:11 | 45.66360 | 27.31472 | 28539 ft | 443 kts | 225° |
| 2026-05-01 09:12 | 45.64135 | 27.28466 | 27999 ft | 437 kts | 225° |
| 2026-05-01 09:12 | 45.61931 | 27.25491 | 27450 ft | 435 kts | 225° |
| 2026-05-01 09:12 | 45.59725 | 27.22517 | 26923 ft | 435 kts | 225° |
| 2026-05-01 09:12 | 45.57529 | 27.19560 | 26409 ft | 433 kts | 225° |
| 2026-05-01 09:13 | 45.55345 | 27.16624 | 25910 ft | 429 kts | 225° |
| 2026-05-01 09:13 | 45.53204 | 27.13747 | 25411 ft | 427 kts | 225° |
| 2026-05-01 09:13 | 45.51044 | 27.10851 | 24918 ft | 425 kts | 226° |
| 2026-05-01 09:13 | 45.48895 | 27.07970 | 24435 ft | 423 kts | 226° |
| 2026-05-01 09:14 | 45.46751 | 27.05100 | 23957 ft | 421 kts | 226° |
| 2026-05-01 09:14 | 45.44622 | 27.02252 | 23404 ft | 418 kts | 225° |
| 2026-05-01 09:14 | 45.42509 | 26.99430 | 22848 ft | 414 kts | 225° |
| 2026-05-01 09:14 | 45.40409 | 26.96627 | 22299 ft | 412 kts | 225° |
| 2026-05-01 09:15 | 45.38347 | 26.93878 | 21770 ft | 409 kts | 225° |
| 2026-05-01 09:15 | 45.36280 | 26.91125 | 21231 ft | 406 kts | 225° |
| 2026-05-01 09:15 | 45.34229 | 26.88388 | 20725 ft | 402 kts | 227° |
| 2026-05-01 09:15 | 45.32317 | 26.85490 | 20198 ft | 400 kts | 230° |
| 2026-05-01 09:16 | 45.30450 | 26.82583 | 19687 ft | 397 kts | 230° |
| 2026-05-01 09:16 | 45.28596 | 26.79682 | 19221 ft | 395 kts | 230° |
| 2026-05-01 09:16 | 45.26752 | 26.76801 | 18843 ft | 393 kts | 230° |
| 2026-05-01 09:17 | 45.23093 | 26.71108 | 18062 ft | 391 kts | 229° |
| 2026-05-01 09:17 | 45.21262 | 26.68269 | 17578 ft | 388 kts | 229° |
| 2026-05-01 09:17 | 45.17642 | 26.62664 | 16524 ft | 381 kts | 229° |
| 2026-05-01 09:18 | 45.15857 | 26.59905 | 16000 ft | 378 kts | 229° |
| 2026-05-01 09:18 | 45.12326 | 26.54453 | 14987 ft | 372 kts | 229° |
| 2026-05-01 09:19 | 45.08873 | 26.49133 | 13993 ft | 366 kts | 229° |
| 2026-05-01 09:19 | 45.07156 | 26.46490 | 13447 ft | 364 kts | 229° |
| 2026-05-01 09:19 | 45.05447 | 26.43865 | 12905 ft | 361 kts | 229° |
| 2026-05-01 09:20 | 45.02067 | 26.38678 | 11850 ft | 355 kts | 229° |
| 2026-05-01 09:20 | 44.98766 | 26.33623 | 11503 ft | 350 kts | 229° |
| 2026-05-01 09:21 | 44.95468 | 26.28579 | 11301 ft | 348 kts | 229° |
| 2026-05-01 09:21 | 44.93820 | 26.26063 | 11030 ft | 349 kts | 229° |
| 2026-05-01 09:21 | 44.90532 | 26.21049 | 10023 ft | 345 kts | 229° |
| 2026-05-01 09:22 | 44.87307 | 26.16141 | 8941 ft | 341 kts | 229° |
| 2026-05-01 09:22 | 44.84104 | 26.11275 | 7890 ft | 336 kts | 229° |
| 2026-05-01 09:23 | 44.82534 | 26.08892 | 7633 ft | 325 kts | 229° |
| 2026-05-01 09:23 | 44.79583 | 26.04425 | 7417 ft | 297 kts | 229° |
| 2026-05-01 09:24 | 44.76882 | 26.00339 | 7343 ft | 282 kts | 229° |
| 2026-05-01 09:24 | 44.75559 | 25.98334 | 7341 ft | 283 kts | 229° |
| 2026-05-01 09:24 | 44.72917 | 25.94348 | 7246 ft | 270 kts | 229° |
| 2026-05-01 09:25 | 44.70408 | 25.90565 | 6578 ft | 268 kts | 229° |
| 2026-05-01 09:25 | 44.67808 | 25.86645 | 5520 ft | 278 kts | 229° |
| 2026-05-01 09:26 | 44.66470 | 25.84629 | 4896 ft | 286 kts | 229° |
| 2026-05-01 09:26 | 44.63368 | 25.81123 | 3687 ft | 295 kts | 198° |
| 2026-05-01 09:26 | 44.61362 | 25.80796 | 3086 ft | 289 kts | 175° |
| 2026-05-01 09:27 | 44.57622 | 25.81791 | 2710 ft | 255 kts | 166° |
| 2026-05-01 09:27 | 44.56065 | 25.82695 | 2576 ft | 231 kts | 138° |
| 2026-05-01 09:27 | 44.55252 | 25.84365 | 2497 ft | 205 kts | 103° |
| 2026-05-01 09:28 | 44.55032 | 25.86226 | 2500 ft | 189 kts | 88° |
| 2026-05-01 09:28 | 44.55060 | 25.88114 | 2504 ft | 192 kts | 82° |
| 2026-05-01 09:28 | 44.55162 | 25.89868 | 2486 ft | 173 kts | 81° |
| 2026-05-01 09:28 | 44.55277 | 25.91457 | 2473 ft | 158 kts | 81° |
| 2026-05-01 09:29 | 44.55506 | 25.94545 | 2098 ft | 158 kts | 79° |
| 2026-05-01 09:29 | 44.55613 | 25.96052 | 1881 ft | 149 kts | 79° |
| 2026-05-01 09:30 | 44.55809 | 25.98727 | 1533 ft | 131 kts | 79° |
| 2026-05-01 09:30 | 44.55904 | 26.00009 | 1381 ft | 130 kts | 79° |
| 2026-05-01 09:30 | 44.56082 | 26.02439 | 1029 ft | 123 kts | 79° |
| 2026-05-01 09:31 | 44.56173 | 26.03667 | 933 ft | 128 kts | 80° |
| 2026-05-01 09:31 | 44.56256 | 26.04887 | 751 ft | 124 kts | 81° |
| 2026-05-01 09:31 | 44.56429 | 26.07265 | 413 ft | 116 kts | 80° |
| 2026-05-01 09:32 | 44.56516 | 26.08332 | 334 ft | 104 kts | 81° |
| 2026-05-01 09:32 | 44.56632 | 26.09872 | 322 ft | 45 kts | 85° |
| 2026-05-01 09:32 | 44.56658 | 26.10242 | 323 ft | 36 kts | 83° |
| 2026-05-01 09:33 | 44.56676 | 26.10469 | 321 ft | 34 kts | 83° |
| 2026-05-01 09:33 | 44.56727 | 26.10761 | 321 ft | 12 kts | 30° |
| 2026-05-01 09:33 | 44.56978 | 26.10719 | 321 ft | 23 kts | 332° |
| 2026-05-01 09:34 | 44.57040 | 26.10626 | 322 ft | 5 kts | 299° |
| 2026-05-01 09:34 | 44.57063 | 26.10555 | 322 ft | 12 kts | 283° |
| 2026-05-01 09:34 | 44.57040 | 26.10162 | 322 ft | 33 kts | 264° |
| 2026-05-01 09:35 | 44.57015 | 26.09826 | 322 ft | 35 kts | 262° |
| 2026-05-01 09:35 | 44.56961 | 26.09113 | 320 ft | 38 kts | 264° |
| 2026-05-01 09:35 | 44.56933 | 26.08766 | 321 ft | 18 kts | 264° |
| 2026-05-01 09:36 | 44.56919 | 26.08593 | 321 ft | 19 kts | 260° |
| 2026-05-01 09:36 | 44.56914 | 26.08414 | 320 ft | 20 kts | 311° |
| 2026-05-01 09:36 | 44.56952 | 26.08306 | 322 ft | 1 kts | 256° |
| 2026-05-01 09:36 | 44.56946 | 26.08265 | 321 ft | 8 kts | 262° |
| 2026-05-01 09:37 | 44.56988 | 26.08202 | 322 ft | 9 kts | 354° |
| 2026-05-01 09:37 | 44.57026 | 26.08197 | 320 ft | 1 kts | 353° |